sensor_id;sensor_type;location;lat;lon;timestamp;P1;durP1;ratioP1;P2;durP2;ratioP2
37451;SDS011;23314;51.114;6.900;2023-12-20T00:01:22;46.37;;;25.03;;
37451;SDS011;23314;51.114;6.900;2023-12-20T00:03:48;45.83;;;25.57;;
37451;SDS011;23314;51.114;6.900;2023-12-20T00:06:13;41.90;;;24.73;;
37451;SDS011;23314;51.114;6.900;2023-12-20T00:08:38;27.37;;;18.17;;
37451;SDS011;23314;51.114;6.900;2023-12-20T00:11:04;19.97;;;13.27;;
37451;SDS011;23314;51.114;6.900;2023-12-20T00:13:29;15.10;;;9.47;;
37451;SDS011;23314;51.114;6.900;2023-12-20T00:15:54;8.57;;;6.00;;
37451;SDS011;23314;51.114;6.900;2023-12-20T00:18:20;7.00;;;5.37;;
37451;SDS011;23314;51.114;6.900;2023-12-20T00:20:45;9.20;;;6.03;;
37451;SDS011;23314;51.114;6.900;2023-12-20T00:23:10;7.87;;;5.73;;
37451;SDS011;23314;51.114;6.900;2023-12-20T00:25:35;9.90;;;5.87;;
37451;SDS011;23314;51.114;6.900;2023-12-20T00:28:01;10.30;;;5.83;;
37451;SDS011;23314;51.114;6.900;2023-12-20T00:30:27;12.87;;;6.80;;
37451;SDS011;23314;51.114;6.900;2023-12-20T00:32:53;10.13;;;6.53;;
37451;SDS011;23314;51.114;6.900;2023-12-20T00:35:18;8.57;;;5.83;;
37451;SDS011;23314;51.114;6.900;2023-12-20T00:37:44;7.70;;;5.87;;
37451;SDS011;23314;51.114;6.900;2023-12-20T00:40:09;9.93;;;6.13;;
37451;SDS011;23314;51.114;6.900;2023-12-20T00:42:35;12.03;;;6.73;;
37451;SDS011;23314;51.114;6.900;2023-12-20T00:45:01;11.43;;;6.30;;
37451;SDS011;23314;51.114;6.900;2023-12-20T00:47:27;9.17;;;6.50;;
37451;SDS011;23314;51.114;6.900;2023-12-20T00:49:53;8.63;;;7.27;;
37451;SDS011;23314;51.114;6.900;2023-12-20T00:52:18;12.73;;;7.57;;
37451;SDS011;23314;51.114;6.900;2023-12-20T00:54:44;12.87;;;7.23;;
37451;SDS011;23314;51.114;6.900;2023-12-20T00:57:09;12.03;;;7.17;;
37451;SDS011;23314;51.114;6.900;2023-12-20T00:59:35;11.10;;;7.30;;
37451;SDS011;23314;51.114;6.900;2023-12-20T01:02:01;13.73;;;7.43;;
37451;SDS011;23314;51.114;6.900;2023-12-20T01:04:26;11.80;;;7.93;;
37451;SDS011;23314;51.114;6.900;2023-12-20T01:06:57;13.30;;;8.37;;
37451;SDS011;23314;51.114;6.900;2023-12-20T01:09:22;15.60;;;8.07;;
37451;SDS011;23314;51.114;6.900;2023-12-20T01:11:54;13.87;;;8.30;;
37451;SDS011;23314;51.114;6.900;2023-12-20T01:14:19;14.53;;;9.30;;
37451;SDS011;23314;51.114;6.900;2023-12-20T01:16:44;15.97;;;8.87;;
37451;SDS011;23314;51.114;6.900;2023-12-20T01:19:10;16.53;;;8.67;;
37451;SDS011;23314;51.114;6.900;2023-12-20T01:21:35;15.73;;;8.50;;
37451;SDS011;23314;51.114;6.900;2023-12-20T01:24:00;14.23;;;8.73;;
37451;SDS011;23314;51.114;6.900;2023-12-20T01:26:26;15.93;;;9.13;;
37451;SDS011;23314;51.114;6.900;2023-12-20T01:28:51;14.03;;;8.87;;
37451;SDS011;23314;51.114;6.900;2023-12-20T01:31:16;16.50;;;9.87;;
37451;SDS011;23314;51.114;6.900;2023-12-20T01:33:42;15.83;;;10.27;;
37451;SDS011;23314;51.114;6.900;2023-12-20T01:36:07;16.83;;;11.67;;
37451;SDS011;23314;51.114;6.900;2023-12-20T01:38:32;18.33;;;12.87;;
37451;SDS011;23314;51.114;6.900;2023-12-20T01:40:58;19.53;;;12.77;;
37451;SDS011;23314;51.114;6.900;2023-12-20T01:43:24;21.43;;;14.00;;
37451;SDS011;23314;51.114;6.900;2023-12-20T01:45:49;17.43;;;13.13;;
37451;SDS011;23314;51.114;6.900;2023-12-20T01:48:15;17.03;;;12.90;;
37451;SDS011;23314;51.114;6.900;2023-12-20T01:50:41;18.90;;;13.43;;
37451;SDS011;23314;51.114;6.900;2023-12-20T01:53:09;23.43;;;13.67;;
37451;SDS011;23314;51.114;6.900;2023-12-20T01:55:37;16.23;;;11.43;;
37451;SDS011;23314;51.114;6.900;2023-12-20T01:58:04;18.07;;;11.93;;
37451;SDS011;23314;51.114;6.900;2023-12-20T02:00:30;22.60;;;12.13;;
37451;SDS011;23314;51.114;6.900;2023-12-20T02:02:56;19.40;;;11.10;;
37451;SDS011;23314;51.114;6.900;2023-12-20T02:05:26;20.10;;;11.27;;
37451;SDS011;23314;51.114;6.900;2023-12-20T02:07:52;17.97;;;11.17;;
37451;SDS011;23314;51.114;6.900;2023-12-20T02:10:18;24.23;;;11.13;;
37451;SDS011;23314;51.114;6.900;2023-12-20T02:12:43;24.73;;;12.10;;
37451;SDS011;23314;51.114;6.900;2023-12-20T02:15:08;19.47;;;11.77;;
37451;SDS011;23314;51.114;6.900;2023-12-20T02:17:34;17.97;;;11.73;;
37451;SDS011;23314;51.114;6.900;2023-12-20T02:20:00;21.40;;;11.33;;
37451;SDS011;23314;51.114;6.900;2023-12-20T02:22:25;25.37;;;11.60;;
37451;SDS011;23314;51.114;6.900;2023-12-20T02:24:51;19.07;;;10.80;;
37451;SDS011;23314;51.114;6.900;2023-12-20T02:27:17;22.67;;;11.33;;
37451;SDS011;23314;51.114;6.900;2023-12-20T02:29:44;23.83;;;10.70;;
37451;SDS011;23314;51.114;6.900;2023-12-20T02:32:12;23.47;;;11.00;;
37451;SDS011;23314;51.114;6.900;2023-12-20T02:34:37;25.60;;;10.73;;
37451;SDS011;23314;51.114;6.900;2023-12-20T02:37:03;21.63;;;10.30;;
37451;SDS011;23314;51.114;6.900;2023-12-20T02:39:28;24.33;;;11.17;;
37451;SDS011;23314;51.114;6.900;2023-12-20T02:41:53;23.63;;;10.80;;
37451;SDS011;23314;51.114;6.900;2023-12-20T02:44:18;22.73;;;10.47;;
37451;SDS011;23314;51.114;6.900;2023-12-20T02:46:44;26.17;;;9.20;;
37451;SDS011;23314;51.114;6.900;2023-12-20T02:49:09;18.20;;;9.83;;
37451;SDS011;23314;51.114;6.900;2023-12-20T02:51:35;26.37;;;9.40;;
37451;SDS011;23314;51.114;6.900;2023-12-20T02:54:03;22.67;;;9.33;;
37451;SDS011;23314;51.114;6.900;2023-12-20T02:56:28;17.23;;;8.13;;
37451;SDS011;23314;51.114;6.900;2023-12-20T02:58:53;19.23;;;8.20;;
37451;SDS011;23314;51.114;6.900;2023-12-20T03:01:19;22.73;;;7.87;;
37451;SDS011;23314;51.114;6.900;2023-12-20T03:03:44;17.77;;;6.50;;
37451;SDS011;23314;51.114;6.900;2023-12-20T03:06:10;17.80;;;6.57;;
37451;SDS011;23314;51.114;6.900;2023-12-20T03:08:35;18.90;;;6.27;;
37451;SDS011;23314;51.114;6.900;2023-12-20T03:11:00;18.07;;;6.50;;
37451;SDS011;23314;51.114;6.900;2023-12-20T03:13:26;17.13;;;5.67;;
37451;SDS011;23314;51.114;6.900;2023-12-20T03:15:51;15.33;;;4.67;;
37451;SDS011;23314;51.114;6.900;2023-12-20T03:18:16;15.03;;;4.40;;
37451;SDS011;23314;51.114;6.900;2023-12-20T03:20:43;21.27;;;4.23;;
37451;SDS011;23314;51.114;6.900;2023-12-20T03:23:08;19.40;;;4.87;;
37451;SDS011;23314;51.114;6.900;2023-12-20T03:25:34;18.80;;;5.17;;
37451;SDS011;23314;51.114;6.900;2023-12-20T03:27:59;13.07;;;3.87;;
37451;SDS011;23314;51.114;6.900;2023-12-20T03:30:25;20.13;;;4.50;;
37451;SDS011;23314;51.114;6.900;2023-12-20T03:32:50;17.13;;;4.60;;
37451;SDS011;23314;51.114;6.900;2023-12-20T03:35:15;20.87;;;4.93;;
37451;SDS011;23314;51.114;6.900;2023-12-20T03:37:41;17.87;;;5.00;;
37451;SDS011;23314;51.114;6.900;2023-12-20T03:40:06;17.30;;;4.93;;
37451;SDS011;23314;51.114;6.900;2023-12-20T03:42:32;19.37;;;5.20;;
37451;SDS011;23314;51.114;6.900;2023-12-20T03:44:57;17.30;;;5.37;;
37451;SDS011;23314;51.114;6.900;2023-12-20T03:47:23;22.10;;;5.93;;
37451;SDS011;23314;51.114;6.900;2023-12-20T03:49:48;16.33;;;5.10;;
37451;SDS011;23314;51.114;6.900;2023-12-20T03:52:14;23.63;;;5.93;;
37451;SDS011;23314;51.114;6.900;2023-12-20T03:54:40;20.70;;;6.13;;
37451;SDS011;23314;51.114;6.900;2023-12-20T03:57:07;22.07;;;5.80;;
37451;SDS011;23314;51.114;6.900;2023-12-20T03:59:36;17.93;;;5.20;;
37451;SDS011;23314;51.114;6.900;2023-12-20T04:02:03;15.37;;;5.23;;
37451;SDS011;23314;51.114;6.900;2023-12-20T04:04:29;15.73;;;5.00;;
37451;SDS011;23314;51.114;6.900;2023-12-20T04:06:54;19.10;;;5.87;;
37451;SDS011;23314;51.114;6.900;2023-12-20T04:09:19;27.03;;;5.43;;
37451;SDS011;23314;51.114;6.900;2023-12-20T04:11:45;18.30;;;5.57;;
37451;SDS011;23314;51.114;6.900;2023-12-20T04:14:10;20.13;;;5.43;;
37451;SDS011;23314;51.114;6.900;2023-12-20T04:16:35;16.27;;;5.37;;
37451;SDS011;23314;51.114;6.900;2023-12-20T04:19:01;20.57;;;5.27;;
37451;SDS011;23314;51.114;6.900;2023-12-20T04:21:26;23.87;;;6.20;;
37451;SDS011;23314;51.114;6.900;2023-12-20T04:23:52;18.23;;;5.70;;
37451;SDS011;23314;51.114;6.900;2023-12-20T04:26:17;17.90;;;5.67;;
37451;SDS011;23314;51.114;6.900;2023-12-20T04:28:42;18.13;;;5.07;;
37451;SDS011;23314;51.114;6.900;2023-12-20T04:31:08;24.47;;;6.80;;
37451;SDS011;23314;51.114;6.900;2023-12-20T04:33:33;25.57;;;5.80;;
37451;SDS011;23314;51.114;6.900;2023-12-20T04:35:58;28.93;;;6.57;;
37451;SDS011;23314;51.114;6.900;2023-12-20T04:38:25;23.40;;;6.70;;
37451;SDS011;23314;51.114;6.900;2023-12-20T04:40:50;22.50;;;5.90;;
37451;SDS011;23314;51.114;6.900;2023-12-20T04:43:15;18.20;;;5.63;;
37451;SDS011;23314;51.114;6.900;2023-12-20T04:45:40;22.63;;;6.37;;
37451;SDS011;23314;51.114;6.900;2023-12-20T04:48:06;29.20;;;6.87;;
37451;SDS011;23314;51.114;6.900;2023-12-20T04:50:31;22.97;;;7.70;;
37451;SDS011;23314;51.114;6.900;2023-12-20T04:52:57;27.63;;;7.83;;
37451;SDS011;23314;51.114;6.900;2023-12-20T04:55:22;27.40;;;7.17;;
37451;SDS011;23314;51.114;6.900;2023-12-20T04:57:47;22.63;;;6.40;;
37451;SDS011;23314;51.114;6.900;2023-12-20T05:00:13;24.43;;;7.50;;
37451;SDS011;23314;51.114;6.900;2023-12-20T05:02:40;22.67;;;7.43;;
37451;SDS011;23314;51.114;6.900;2023-12-20T05:05:06;26.57;;;7.10;;
37451;SDS011;23314;51.114;6.900;2023-12-20T05:07:32;27.40;;;7.70;;
37451;SDS011;23314;51.114;6.900;2023-12-20T05:09:58;32.53;;;7.70;;
37451;SDS011;23314;51.114;6.900;2023-12-20T05:12:23;23.63;;;7.80;;
37451;SDS011;23314;51.114;6.900;2023-12-20T05:14:48;26.20;;;7.77;;
37451;SDS011;23314;51.114;6.900;2023-12-20T05:17:14;21.93;;;7.37;;
37451;SDS011;23314;51.114;6.900;2023-12-20T05:19:39;23.43;;;6.57;;
37451;SDS011;23314;51.114;6.900;2023-12-20T05:22:04;23.00;;;6.27;;
37451;SDS011;23314;51.114;6.900;2023-12-20T05:24:30;27.70;;;6.70;;
37451;SDS011;23314;51.114;6.900;2023-12-20T05:26:55;23.97;;;6.73;;
37451;SDS011;23314;51.114;6.900;2023-12-20T05:29:20;21.93;;;6.23;;
37451;SDS011;23314;51.114;6.900;2023-12-20T05:31:46;19.37;;;6.97;;
37451;SDS011;23314;51.114;6.900;2023-12-20T05:34:11;22.63;;;6.27;;
37451;SDS011;23314;51.114;6.900;2023-12-20T05:36:36;17.07;;;6.67;;
37451;SDS011;23314;51.114;6.900;2023-12-20T05:39:03;31.37;;;7.13;;
37451;SDS011;23314;51.114;6.900;2023-12-20T05:41:29;20.33;;;6.20;;
37451;SDS011;23314;51.114;6.900;2023-12-20T05:43:55;26.37;;;7.53;;
37451;SDS011;23314;51.114;6.900;2023-12-20T05:46:22;28.23;;;7.33;;
37451;SDS011;23314;51.114;6.900;2023-12-20T05:48:48;17.93;;;6.60;;
37451;SDS011;23314;51.114;6.900;2023-12-20T05:51:13;24.37;;;7.73;;
37451;SDS011;23314;51.114;6.900;2023-12-20T05:53:39;27.27;;;7.13;;
37451;SDS011;23314;51.114;6.900;2023-12-20T05:56:04;26.10;;;7.30;;
37451;SDS011;23314;51.114;6.900;2023-12-20T05:58:30;17.87;;;6.50;;
37451;SDS011;23314;51.114;6.900;2023-12-20T06:00:55;21.20;;;6.30;;
37451;SDS011;23314;51.114;6.900;2023-12-20T06:03:20;26.23;;;6.40;;
37451;SDS011;23314;51.114;6.900;2023-12-20T06:05:46;21.10;;;5.63;;
37451;SDS011;23314;51.114;6.900;2023-12-20T06:08:11;17.53;;;6.37;;
37451;SDS011;23314;51.114;6.900;2023-12-20T06:10:36;31.17;;;6.80;;
37451;SDS011;23314;51.114;6.900;2023-12-20T06:13:02;23.87;;;6.90;;
37451;SDS011;23314;51.114;6.900;2023-12-20T06:15:29;22.97;;;6.23;;
37451;SDS011;23314;51.114;6.900;2023-12-20T06:17:54;20.53;;;6.00;;
37451;SDS011;23314;51.114;6.900;2023-12-20T06:20:19;24.33;;;6.00;;
37451;SDS011;23314;51.114;6.900;2023-12-20T06:22:45;22.90;;;6.07;;
37451;SDS011;23314;51.114;6.900;2023-12-20T06:25:10;19.33;;;6.70;;
37451;SDS011;23314;51.114;6.900;2023-12-20T06:27:35;14.33;;;6.00;;
37451;SDS011;23314;51.114;6.900;2023-12-20T06:30:01;20.37;;;6.27;;
37451;SDS011;23314;51.114;6.900;2023-12-20T06:32:26;26.97;;;5.93;;
37451;SDS011;23314;51.114;6.900;2023-12-20T06:34:53;17.63;;;5.63;;
37451;SDS011;23314;51.114;6.900;2023-12-20T06:37:19;21.97;;;6.30;;
37451;SDS011;23314;51.114;6.900;2023-12-20T06:39:45;19.60;;;5.40;;
37451;SDS011;23314;51.114;6.900;2023-12-20T06:42:10;20.17;;;5.50;;
37451;SDS011;23314;51.114;6.900;2023-12-20T06:44:35;24.80;;;6.13;;
37451;SDS011;23314;51.114;6.900;2023-12-20T06:47:01;21.87;;;5.97;;
37451;SDS011;23314;51.114;6.900;2023-12-20T06:49:27;23.07;;;5.80;;
37451;SDS011;23314;51.114;6.900;2023-12-20T06:51:52;19.13;;;5.87;;
37451;SDS011;23314;51.114;6.900;2023-12-20T06:54:18;24.77;;;5.83;;
37451;SDS011;23314;51.114;6.900;2023-12-20T06:56:43;19.77;;;5.43;;
37451;SDS011;23314;51.114;6.900;2023-12-20T06:59:08;23.40;;;5.40;;
37451;SDS011;23314;51.114;6.900;2023-12-20T07:01:34;17.53;;;6.07;;
37451;SDS011;23314;51.114;6.900;2023-12-20T07:03:59;18.23;;;7.07;;
37451;SDS011;23314;51.114;6.900;2023-12-20T07:06:24;19.47;;;6.23;;
37451;SDS011;23314;51.114;6.900;2023-12-20T07:08:51;21.90;;;6.40;;
37451;SDS011;23314;51.114;6.900;2023-12-20T07:11:17;24.17;;;5.33;;
37451;SDS011;23314;51.114;6.900;2023-12-20T07:13:42;19.20;;;6.03;;
37451;SDS011;23314;51.114;6.900;2023-12-20T07:16:08;17.60;;;4.97;;
37451;SDS011;23314;51.114;6.900;2023-12-20T07:18:33;24.60;;;5.80;;
37451;SDS011;23314;51.114;6.900;2023-12-20T07:20:58;23.07;;;5.43;;
37451;SDS011;23314;51.114;6.900;2023-12-20T07:23:23;17.73;;;5.70;;
37451;SDS011;23314;51.114;6.900;2023-12-20T07:25:50;16.17;;;5.10;;
37451;SDS011;23314;51.114;6.900;2023-12-20T07:28:16;22.33;;;5.40;;
37451;SDS011;23314;51.114;6.900;2023-12-20T07:30:41;21.70;;;5.57;;
37451;SDS011;23314;51.114;6.900;2023-12-20T07:33:06;25.37;;;6.03;;
37451;SDS011;23314;51.114;6.900;2023-12-20T07:35:34;26.97;;;5.77;;
37451;SDS011;23314;51.114;6.900;2023-12-20T07:37:59;16.57;;;5.50;;
37451;SDS011;23314;51.114;6.900;2023-12-20T07:40:24;25.37;;;6.03;;
37451;SDS011;23314;51.114;6.900;2023-12-20T07:42:50;17.17;;;5.77;;
37451;SDS011;23314;51.114;6.900;2023-12-20T07:45:15;21.77;;;6.27;;
37451;SDS011;23314;51.114;6.900;2023-12-20T07:47:40;23.60;;;5.73;;
37451;SDS011;23314;51.114;6.900;2023-12-20T07:50:06;19.97;;;6.37;;
37451;SDS011;23314;51.114;6.900;2023-12-20T07:52:31;18.00;;;6.20;;
37451;SDS011;23314;51.114;6.900;2023-12-20T07:54:57;19.80;;;6.53;;
37451;SDS011;23314;51.114;6.900;2023-12-20T07:57:23;19.17;;;5.60;;
37451;SDS011;23314;51.114;6.900;2023-12-20T07:59:48;17.97;;;5.50;;
37451;SDS011;23314;51.114;6.900;2023-12-20T08:02:13;19.23;;;6.07;;
37451;SDS011;23314;51.114;6.900;2023-12-20T08:04:39;20.60;;;5.93;;
37451;SDS011;23314;51.114;6.900;2023-12-20T08:07:04;21.47;;;6.43;;
37451;SDS011;23314;51.114;6.900;2023-12-20T08:09:29;17.33;;;5.70;;
37451;SDS011;23314;51.114;6.900;2023-12-20T08:11:55;28.93;;;7.63;;
37451;SDS011;23314;51.114;6.900;2023-12-20T08:14:20;18.60;;;5.93;;
37451;SDS011;23314;51.114;6.900;2023-12-20T08:16:46;23.87;;;6.10;;
37451;SDS011;23314;51.114;6.900;2023-12-20T08:19:12;14.97;;;5.87;;
37451;SDS011;23314;51.114;6.900;2023-12-20T08:21:38;18.10;;;5.27;;
37451;SDS011;23314;51.114;6.900;2023-12-20T08:24:04;20.73;;;6.00;;
37451;SDS011;23314;51.114;6.900;2023-12-20T08:26:29;20.20;;;6.00;;
37451;SDS011;23314;51.114;6.900;2023-12-20T08:28:55;19.93;;;5.67;;
37451;SDS011;23314;51.114;6.900;2023-12-20T08:31:20;20.03;;;5.90;;
37451;SDS011;23314;51.114;6.900;2023-12-20T08:33:46;19.23;;;5.33;;
37451;SDS011;23314;51.114;6.900;2023-12-20T08:36:13;20.87;;;5.50;;
37451;SDS011;23314;51.114;6.900;2023-12-20T08:38:38;18.77;;;4.73;;
37451;SDS011;23314;51.114;6.900;2023-12-20T08:41:04;14.93;;;4.97;;
37451;SDS011;23314;51.114;6.900;2023-12-20T08:43:33;22.90;;;5.70;;
37451;SDS011;23314;51.114;6.900;2023-12-20T08:45:59;18.80;;;4.80;;
37451;SDS011;23314;51.114;6.900;2023-12-20T08:48:24;17.70;;;5.17;;
37451;SDS011;23314;51.114;6.900;2023-12-20T08:50:50;17.17;;;5.30;;
37451;SDS011;23314;51.114;6.900;2023-12-20T08:53:17;16.03;;;4.87;;
37451;SDS011;23314;51.114;6.900;2023-12-20T08:55:46;17.63;;;5.30;;
37451;SDS011;23314;51.114;6.900;2023-12-20T08:58:11;21.57;;;5.30;;
37451;SDS011;23314;51.114;6.900;2023-12-20T09:00:37;19.77;;;5.57;;
37451;SDS011;23314;51.114;6.900;2023-12-20T09:03:03;24.37;;;5.77;;
37451;SDS011;23314;51.114;6.900;2023-12-20T09:05:29;23.70;;;5.13;;
37451;SDS011;23314;51.114;6.900;2023-12-20T09:07:55;13.73;;;4.87;;
37451;SDS011;23314;51.114;6.900;2023-12-20T09:10:20;21.00;;;5.13;;
37451;SDS011;23314;51.114;6.900;2023-12-20T09:12:47;15.37;;;4.90;;
37451;SDS011;23314;51.114;6.900;2023-12-20T09:15:13;20.27;;;4.80;;
37451;SDS011;23314;51.114;6.900;2023-12-20T09:17:39;17.23;;;4.83;;
37451;SDS011;23314;51.114;6.900;2023-12-20T09:20:05;18.87;;;4.53;;
37451;SDS011;23314;51.114;6.900;2023-12-20T09:22:33;16.03;;;5.20;;
37451;SDS011;23314;51.114;6.900;2023-12-20T09:24:58;21.27;;;4.67;;
37451;SDS011;23314;51.114;6.900;2023-12-20T09:27:23;20.10;;;4.53;;
37451;SDS011;23314;51.114;6.900;2023-12-20T09:29:49;17.00;;;4.60;;
37451;SDS011;23314;51.114;6.900;2023-12-20T09:32:14;18.60;;;5.30;;
37451;SDS011;23314;51.114;6.900;2023-12-20T09:34:40;20.77;;;4.60;;
37451;SDS011;23314;51.114;6.900;2023-12-20T09:37:06;18.63;;;4.77;;
37451;SDS011;23314;51.114;6.900;2023-12-20T09:39:32;17.57;;;4.70;;
37451;SDS011;23314;51.114;6.900;2023-12-20T09:42:04;16.53;;;4.47;;
37451;SDS011;23314;51.114;6.900;2023-12-20T09:44:31;14.30;;;4.23;;
37451;SDS011;23314;51.114;6.900;2023-12-20T09:46:58;21.13;;;4.93;;
37451;SDS011;23314;51.114;6.900;2023-12-20T09:49:23;15.00;;;4.23;;
37451;SDS011;23314;51.114;6.900;2023-12-20T09:51:53;19.73;;;5.17;;
37451;SDS011;23314;51.114;6.900;2023-12-20T09:54:19;17.03;;;4.63;;
37451;SDS011;23314;51.114;6.900;2023-12-20T09:56:46;16.57;;;3.97;;
37451;SDS011;23314;51.114;6.900;2023-12-20T09:59:12;14.37;;;3.90;;
37451;SDS011;23314;51.114;6.900;2023-12-20T10:01:39;18.80;;;3.90;;
37451;SDS011;23314;51.114;6.900;2023-12-20T10:04:06;15.93;;;4.50;;
37451;SDS011;23314;51.114;6.900;2023-12-20T10:06:42;14.43;;;4.03;;
37451;SDS011;23314;51.114;6.900;2023-12-20T10:09:08;17.63;;;4.60;;
37451;SDS011;23314;51.114;6.900;2023-12-20T10:11:38;18.83;;;4.30;;
37451;SDS011;23314;51.114;6.900;2023-12-20T10:14:04;14.60;;;4.00;;
37451;SDS011;23314;51.114;6.900;2023-12-20T10:16:31;13.93;;;3.83;;
37451;SDS011;23314;51.114;6.900;2023-12-20T10:18:58;16.37;;;3.73;;
37451;SDS011;23314;51.114;6.900;2023-12-20T10:21:24;17.83;;;4.33;;
37451;SDS011;23314;51.114;6.900;2023-12-20T10:23:51;18.40;;;4.77;;
37451;SDS011;23314;51.114;6.900;2023-12-20T10:26:26;16.93;;;3.97;;
37451;SDS011;23314;51.114;6.900;2023-12-20T10:28:55;14.33;;;3.77;;
37451;SDS011;23314;51.114;6.900;2023-12-20T10:31:32;11.83;;;3.67;;
37451;SDS011;23314;51.114;6.900;2023-12-20T10:33:58;16.43;;;4.07;;
37451;SDS011;23314;51.114;6.900;2023-12-20T10:36:25;13.67;;;4.03;;
37451;SDS011;23314;51.114;6.900;2023-12-20T10:38:52;14.23;;;3.50;;
37451;SDS011;23314;51.114;6.900;2023-12-20T10:41:19;12.50;;;4.10;;
37451;SDS011;23314;51.114;6.900;2023-12-20T10:43:53;18.53;;;4.07;;
37451;SDS011;23314;51.114;6.900;2023-12-20T10:46:21;13.67;;;4.03;;
37451;SDS011;23314;51.114;6.900;2023-12-20T10:48:47;18.67;;;3.93;;
37451;SDS011;23314;51.114;6.900;2023-12-20T10:51:14;13.57;;;4.03;;
37451;SDS011;23314;51.114;6.900;2023-12-20T10:53:43;16.93;;;4.50;;
37451;SDS011;23314;51.114;6.900;2023-12-20T10:56:09;13.40;;;3.33;;
37451;SDS011;23314;51.114;6.900;2023-12-20T10:58:37;14.33;;;3.30;;
37451;SDS011;23314;51.114;6.900;2023-12-20T11:01:06;20.63;;;4.60;;
37451;SDS011;23314;51.114;6.900;2023-12-20T11:03:34;13.90;;;3.80;;
37451;SDS011;23314;51.114;6.900;2023-12-20T11:06:04;16.10;;;4.20;;
37451;SDS011;23314;51.114;6.900;2023-12-20T11:14:22;16.57;;;3.60;;
37451;SDS011;23314;51.114;6.900;2023-12-20T11:17:05;12.73;;;3.30;;
37451;SDS011;23314;51.114;6.900;2023-12-20T11:22:22;14.83;;;3.50;;
37451;SDS011;23314;51.114;6.900;2023-12-20T11:24:50;10.23;;;3.40;;
37451;SDS011;23314;51.114;6.900;2023-12-20T11:27:16;21.20;;;4.70;;
37451;SDS011;23314;51.114;6.900;2023-12-20T11:29:43;16.97;;;4.27;;
37451;SDS011;23314;51.114;6.900;2023-12-20T11:37:37;18.97;;;4.30;;
37451;SDS011;23314;51.114;6.900;2023-12-20T11:40:06;14.70;;;4.23;;
37451;SDS011;23314;51.114;6.900;2023-12-20T11:42:44;14.67;;;4.63;;
37451;SDS011;23314;51.114;6.900;2023-12-20T11:45:14;16.63;;;3.57;;
37451;SDS011;23314;51.114;6.900;2023-12-20T11:47:42;16.80;;;3.67;;
37451;SDS011;23314;51.114;6.900;2023-12-20T11:50:09;11.80;;;3.33;;
37451;SDS011;23314;51.114;6.900;2023-12-20T11:52:34;19.93;;;4.60;;
37451;SDS011;23314;51.114;6.900;2023-12-20T11:55:00;15.90;;;3.90;;
37451;SDS011;23314;51.114;6.900;2023-12-20T11:57:25;19.43;;;4.17;;
37451;SDS011;23314;51.114;6.900;2023-12-20T11:59:51;16.70;;;3.97;;
37451;SDS011;23314;51.114;6.900;2023-12-20T12:02:16;11.73;;;3.83;;
37451;SDS011;23314;51.114;6.900;2023-12-20T12:04:41;19.57;;;4.97;;
37451;SDS011;23314;51.114;6.900;2023-12-20T12:07:07;15.83;;;3.50;;
37451;SDS011;23314;51.114;6.900;2023-12-20T12:09:32;10.73;;;3.30;;
37451;SDS011;23314;51.114;6.900;2023-12-20T12:11:58;18.73;;;3.90;;
37451;SDS011;23314;51.114;6.900;2023-12-20T12:14:23;18.10;;;4.30;;
37451;SDS011;23314;51.114;6.900;2023-12-20T12:16:49;17.80;;;3.63;;
37451;SDS011;23314;51.114;6.900;2023-12-20T12:19:23;17.33;;;3.60;;
37451;SDS011;23314;51.114;6.900;2023-12-20T12:22:05;15.23;;;3.47;;
37451;SDS011;23314;51.114;6.900;2023-12-20T12:24:32;14.13;;;3.77;;
37451;SDS011;23314;51.114;6.900;2023-12-20T12:26:57;14.93;;;3.70;;
37451;SDS011;23314;51.114;6.900;2023-12-20T12:29:23;14.77;;;3.90;;
37451;SDS011;23314;51.114;6.900;2023-12-20T12:31:50;14.23;;;3.60;;
37451;SDS011;23314;51.114;6.900;2023-12-20T12:34:16;12.53;;;3.07;;
37451;SDS011;23314;51.114;6.900;2023-12-20T12:36:42;16.63;;;3.53;;
37451;SDS011;23314;51.114;6.900;2023-12-20T12:39:08;13.53;;;3.90;;
37451;SDS011;23314;51.114;6.900;2023-12-20T12:41:34;16.97;;;4.17;;
37451;SDS011;23314;51.114;6.900;2023-12-20T12:44:00;16.27;;;3.97;;
37451;SDS011;23314;51.114;6.900;2023-12-20T12:46:25;15.37;;;4.43;;
37451;SDS011;23314;51.114;6.900;2023-12-20T12:48:51;13.97;;;4.17;;
37451;SDS011;23314;51.114;6.900;2023-12-20T12:51:16;12.83;;;3.87;;
37451;SDS011;23314;51.114;6.900;2023-12-20T12:53:41;14.07;;;3.90;;
37451;SDS011;23314;51.114;6.900;2023-12-20T12:56:07;13.83;;;4.17;;
37451;SDS011;23314;51.114;6.900;2023-12-20T12:58:33;13.87;;;4.53;;
37451;SDS011;23314;51.114;6.900;2023-12-20T13:00:59;14.57;;;3.97;;
37451;SDS011;23314;51.114;6.900;2023-12-20T13:03:24;18.13;;;4.70;;
37451;SDS011;23314;51.114;6.900;2023-12-20T13:05:49;15.77;;;4.40;;
37451;SDS011;23314;51.114;6.900;2023-12-20T13:08:15;17.23;;;4.73;;
37451;SDS011;23314;51.114;6.900;2023-12-20T13:10:40;18.27;;;4.90;;
37451;SDS011;23314;51.114;6.900;2023-12-20T13:13:06;21.00;;;4.83;;
37451;SDS011;23314;51.114;6.900;2023-12-20T13:15:31;16.17;;;4.80;;
37451;SDS011;23314;51.114;6.900;2023-12-20T13:17:56;15.23;;;4.60;;
37451;SDS011;23314;51.114;6.900;2023-12-20T13:20:22;11.03;;;4.10;;
37451;SDS011;23314;51.114;6.900;2023-12-20T13:22:47;22.07;;;4.80;;
37451;SDS011;23314;51.114;6.900;2023-12-20T13:25:13;20.57;;;4.97;;
37451;SDS011;23314;51.114;6.900;2023-12-20T13:27:38;12.13;;;4.17;;
37451;SDS011;23314;51.114;6.900;2023-12-20T13:30:04;14.47;;;4.77;;
37451;SDS011;23314;51.114;6.900;2023-12-20T13:32:30;17.13;;;4.80;;
37451;SDS011;23314;51.114;6.900;2023-12-20T13:34:56;18.53;;;5.43;;
37451;SDS011;23314;51.114;6.900;2023-12-20T13:37:21;9.90;;;4.37;;
37451;SDS011;23314;51.114;6.900;2023-12-20T13:39:47;20.03;;;4.60;;
37451;SDS011;23314;51.114;6.900;2023-12-20T13:42:12;11.17;;;4.67;;
37451;SDS011;23314;51.114;6.900;2023-12-20T13:44:38;15.87;;;5.27;;
37451;SDS011;23314;51.114;6.900;2023-12-20T13:47:03;19.50;;;5.40;;
37451;SDS011;23314;51.114;6.900;2023-12-20T13:49:29;14.73;;;4.60;;
37451;SDS011;23314;51.114;6.900;2023-12-20T13:51:54;9.60;;;3.40;;
37451;SDS011;23314;51.114;6.900;2023-12-20T13:54:20;19.00;;;4.83;;
37451;SDS011;23314;51.114;6.900;2023-12-20T13:56:47;13.30;;;4.47;;
37451;SDS011;23314;51.114;6.900;2023-12-20T13:59:12;12.67;;;3.73;;
37451;SDS011;23314;51.114;6.900;2023-12-20T14:01:39;10.73;;;3.80;;
37451;SDS011;23314;51.114;6.900;2023-12-20T14:04:04;14.53;;;4.07;;
37451;SDS011;23314;51.114;6.900;2023-12-20T14:06:29;18.20;;;4.60;;
37451;SDS011;23314;51.114;6.900;2023-12-20T14:08:55;18.27;;;4.60;;
37451;SDS011;23314;51.114;6.900;2023-12-20T14:11:20;11.70;;;3.90;;
37451;SDS011;23314;51.114;6.900;2023-12-20T14:13:45;12.53;;;4.13;;
37451;SDS011;23314;51.114;6.900;2023-12-20T14:16:10;15.03;;;3.60;;
37451;SDS011;23314;51.114;6.900;2023-12-20T14:18:36;15.00;;;3.80;;
37451;SDS011;23314;51.114;6.900;2023-12-20T14:21:01;13.00;;;3.47;;
37451;SDS011;23314;51.114;6.900;2023-12-20T14:23:27;9.30;;;3.27;;
37451;SDS011;23314;51.114;6.900;2023-12-20T14:25:52;13.27;;;4.27;;
37451;SDS011;23314;51.114;6.900;2023-12-20T14:28:17;11.47;;;3.40;;
37451;SDS011;23314;51.114;6.900;2023-12-20T14:30:43;6.73;;;3.10;;
37451;SDS011;23314;51.114;6.900;2023-12-20T14:33:08;12.87;;;3.70;;
37451;SDS011;23314;51.114;6.900;2023-12-20T14:35:33;12.60;;;4.13;;
37451;SDS011;23314;51.114;6.900;2023-12-20T14:37:59;14.00;;;3.63;;
37451;SDS011;23314;51.114;6.900;2023-12-20T14:40:24;13.57;;;4.57;;